sensor_id;sensor_type;location;lat;lon;timestamp;P1;durP1;ratioP1;P2;durP2;ratioP2
6825;SDS011;3451;52.476;13.316;2023-01-09T00:00:21;9.30;;;7.03;;
6825;SDS011;3451;52.476;13.316;2023-01-09T00:02:48;13.03;;;8.33;;
6825;SDS011;3451;52.476;13.316;2023-01-09T00:05:15;9.50;;;6.30;;
6825;SDS011;3451;52.476;13.316;2023-01-09T00:07:41;10.07;;;6.77;;
6825;SDS011;3451;52.476;13.316;2023-01-09T00:10:08;8.70;;;6.53;;
6825;SDS011;3451;52.476;13.316;2023-01-09T00:12:35;9.17;;;6.50;;
6825;SDS011;3451;52.476;13.316;2023-01-09T00:15:01;8.90;;;7.30;;
6825;SDS011;3451;52.476;13.316;2023-01-09T00:17:28;12.70;;;7.57;;
6825;SDS011;3451;52.476;13.316;2023-01-09T00:19:54;9.00;;;6.63;;
6825;SDS011;3451;52.476;13.316;2023-01-09T00:22:20;9.60;;;7.00;;
6825;SDS011;3451;52.476;13.316;2023-01-09T00:24:48;11.10;;;7.13;;
6825;SDS011;3451;52.476;13.316;2023-01-09T00:27:14;10.60;;;7.30;;
6825;SDS011;3451;52.476;13.316;2023-01-09T00:29:40;11.60;;;7.30;;
6825;SDS011;3451;52.476;13.316;2023-01-09T00:32:07;11.13;;;7.10;;
6825;SDS011;3451;52.476;13.316;2023-01-09T00:34:35;10.77;;;7.80;;
6825;SDS011;3451;52.476;13.316;2023-01-09T00:37:03;11.20;;;7.80;;
6825;SDS011;3451;52.476;13.316;2023-01-09T00:39:29;11.47;;;8.27;;
6825;SDS011;3451;52.476;13.316;2023-01-09T00:41:55;11.83;;;8.00;;
6825;SDS011;3451;52.476;13.316;2023-01-09T00:46:52;11.93;;;8.13;;
6825;SDS011;3451;52.476;13.316;2023-01-09T00:49:19;13.07;;;8.10;;
6825;SDS011;3451;52.476;13.316;2023-01-09T00:51:46;13.00;;;8.10;;
6825;SDS011;3451;52.476;13.316;2023-01-09T00:54:14;11.27;;;8.13;;
6825;SDS011;3451;52.476;13.316;2023-01-09T00:56:40;12.70;;;8.40;;
6825;SDS011;3451;52.476;13.316;2023-01-09T00:59:07;10.80;;;8.10;;
6825;SDS011;3451;52.476;13.316;2023-01-09T01:01:33;14.40;;;8.80;;
6825;SDS011;3451;52.476;13.316;2023-01-09T01:04:00;13.33;;;9.07;;
6825;SDS011;3451;52.476;13.316;2023-01-09T01:06:46;13.67;;;8.60;;
6825;SDS011;3451;52.476;13.316;2023-01-09T01:09:31;11.87;;;8.20;;
6825;SDS011;3451;52.476;13.316;2023-01-09T01:11:57;13.80;;;8.70;;
6825;SDS011;3451;52.476;13.316;2023-01-09T01:14:23;13.43;;;9.47;;
6825;SDS011;3451;52.476;13.316;2023-01-09T01:16:49;13.40;;;8.83;;
6825;SDS011;3451;52.476;13.316;2023-01-09T01:19:16;14.33;;;9.67;;
6825;SDS011;3451;52.476;13.316;2023-01-09T01:21:42;13.20;;;9.33;;
6825;SDS011;3451;52.476;13.316;2023-01-09T01:24:08;13.83;;;9.23;;
6825;SDS011;3451;52.476;13.316;2023-01-09T01:26:35;13.53;;;9.57;;
6825;SDS011;3451;52.476;13.316;2023-01-09T01:29:01;13.37;;;9.47;;
6825;SDS011;3451;52.476;13.316;2023-01-09T01:31:27;13.50;;;9.13;;
6825;SDS011;3451;52.476;13.316;2023-01-09T01:33:53;14.00;;;9.67;;
6825;SDS011;3451;52.476;13.316;2023-01-09T01:36:20;14.10;;;9.57;;
6825;SDS011;3451;52.476;13.316;2023-01-09T01:38:46;14.50;;;9.60;;
6825;SDS011;3451;52.476;13.316;2023-01-09T01:41:12;13.87;;;9.20;;
6825;SDS011;3451;52.476;13.316;2023-01-09T01:43:49;13.80;;;9.03;;
6825;SDS011;3451;52.476;13.316;2023-01-09T01:46:16;14.03;;;9.40;;
6825;SDS011;3451;52.476;13.316;2023-01-09T01:48:42;14.27;;;10.17;;
6825;SDS011;3451;52.476;13.316;2023-01-09T01:51:09;14.43;;;9.40;;
6825;SDS011;3451;52.476;13.316;2023-01-09T01:53:39;12.13;;;9.53;;
6825;SDS011;3451;52.476;13.316;2023-01-09T01:56:09;14.60;;;10.13;;
6825;SDS011;3451;52.476;13.316;2023-01-09T01:58:41;16.20;;;10.37;;
6825;SDS011;3451;52.476;13.316;2023-01-09T02:01:08;16.50;;;10.47;;
6825;SDS011;3451;52.476;13.316;2023-01-09T02:03:35;15.43;;;10.53;;
6825;SDS011;3451;52.476;13.316;2023-01-09T02:06:02;14.63;;;10.73;;
6825;SDS011;3451;52.476;13.316;2023-01-09T02:08:30;16.23;;;10.70;;
6825;SDS011;3451;52.476;13.316;2023-01-09T02:10:56;16.43;;;11.00;;
6825;SDS011;3451;52.476;13.316;2023-01-09T02:13:23;16.00;;;10.90;;
6825;SDS011;3451;52.476;13.316;2023-01-09T02:16:00;17.57;;;11.50;;
6825;SDS011;3451;52.476;13.316;2023-01-09T02:21:02;15.17;;;10.60;;
6825;SDS011;3451;52.476;13.316;2023-01-09T02:26:15;14.73;;;10.57;;
6825;SDS011;3451;52.476;13.316;2023-01-09T02:29:07;17.33;;;10.47;;
6825;SDS011;3451;52.476;13.316;2023-01-09T02:31:40;17.13;;;11.17;;
6825;SDS011;3451;52.476;13.316;2023-01-09T02:34:14;19.00;;;11.90;;
6825;SDS011;3451;52.476;13.316;2023-01-09T02:36:46;18.53;;;12.20;;
6825;SDS011;3451;52.476;13.316;2023-01-09T02:39:26;17.13;;;11.27;;
6825;SDS011;3451;52.476;13.316;2023-01-09T02:44:28;19.17;;;12.07;;
6825;SDS011;3451;52.476;13.316;2023-01-09T02:46:58;17.60;;;12.00;;
6825;SDS011;3451;52.476;13.316;2023-01-09T02:49:25;17.37;;;12.50;;
6825;SDS011;3451;52.476;13.316;2023-01-09T02:51:52;17.00;;;12.20;;
6825;SDS011;3451;52.476;13.316;2023-01-09T02:54:21;20.50;;;12.80;;
6825;SDS011;3451;52.476;13.316;2023-01-09T02:56:55;18.67;;;12.23;;
6825;SDS011;3451;52.476;13.316;2023-01-09T02:59:25;20.27;;;13.20;;
6825;SDS011;3451;52.476;13.316;2023-01-09T03:01:54;19.47;;;12.93;;
6825;SDS011;3451;52.476;13.316;2023-01-09T03:07:10;20.97;;;12.70;;
6825;SDS011;3451;52.476;13.316;2023-01-09T03:09:40;18.63;;;11.77;;
6825;SDS011;3451;52.476;13.316;2023-01-09T03:12:11;19.03;;;12.93;;
6825;SDS011;3451;52.476;13.316;2023-01-09T03:14:41;19.47;;;12.47;;
6825;SDS011;3451;52.476;13.316;2023-01-09T03:17:11;18.63;;;12.77;;
6825;SDS011;3451;52.476;13.316;2023-01-09T03:19:37;19.20;;;12.43;;
6825;SDS011;3451;52.476;13.316;2023-01-09T03:22:06;17.73;;;11.83;;
6825;SDS011;3451;52.476;13.316;2023-01-09T03:24:38;19.53;;;12.90;;
6825;SDS011;3451;52.476;13.316;2023-01-09T03:27:07;19.13;;;12.70;;
6825;SDS011;3451;52.476;13.316;2023-01-09T03:29:34;19.87;;;12.07;;
6825;SDS011;3451;52.476;13.316;2023-01-09T03:32:00;18.77;;;13.03;;
6825;SDS011;3451;52.476;13.316;2023-01-09T03:34:27;19.03;;;12.47;;
6825;SDS011;3451;52.476;13.316;2023-01-09T03:36:53;19.47;;;13.23;;
6825;SDS011;3451;52.476;13.316;2023-01-09T03:39:19;19.93;;;13.53;;
6825;SDS011;3451;52.476;13.316;2023-01-09T03:41:45;19.50;;;13.37;;
6825;SDS011;3451;52.476;13.316;2023-01-09T03:44:12;19.57;;;12.77;;
6825;SDS011;3451;52.476;13.316;2023-01-09T03:46:38;18.50;;;12.77;;
6825;SDS011;3451;52.476;13.316;2023-01-09T03:49:05;21.67;;;13.43;;
6825;SDS011;3451;52.476;13.316;2023-01-09T03:51:31;21.30;;;13.60;;
6825;SDS011;3451;52.476;13.316;2023-01-09T03:53:57;19.50;;;12.93;;
6825;SDS011;3451;52.476;13.316;2023-01-09T03:56:23;19.77;;;13.07;;
6825;SDS011;3451;52.476;13.316;2023-01-09T03:58:50;21.37;;;13.70;;
6825;SDS011;3451;52.476;13.316;2023-01-09T04:01:18;19.30;;;13.83;;
6825;SDS011;3451;52.476;13.316;2023-01-09T04:03:44;21.97;;;13.97;;
6825;SDS011;3451;52.476;13.316;2023-01-09T04:06:10;20.00;;;13.17;;
6825;SDS011;3451;52.476;13.316;2023-01-09T04:08:38;19.87;;;13.57;;
6825;SDS011;3451;52.476;13.316;2023-01-09T04:11:04;19.70;;;13.50;;
6825;SDS011;3451;52.476;13.316;2023-01-09T04:13:30;20.90;;;14.10;;
6825;SDS011;3451;52.476;13.316;2023-01-09T04:15:57;17.47;;;12.57;;
6825;SDS011;3451;52.476;13.316;2023-01-09T04:18:23;19.07;;;13.80;;
6825;SDS011;3451;52.476;13.316;2023-01-09T04:20:49;20.90;;;14.80;;
6825;SDS011;3451;52.476;13.316;2023-01-09T04:23:15;19.43;;;13.27;;
6825;SDS011;3451;52.476;13.316;2023-01-09T04:25:42;19.93;;;13.63;;
6825;SDS011;3451;52.476;13.316;2023-01-09T04:28:08;20.87;;;13.43;;
6825;SDS011;3451;52.476;13.316;2023-01-09T04:30:34;21.83;;;14.10;;
6825;SDS011;3451;52.476;13.316;2023-01-09T04:33:01;21.40;;;13.80;;
6825;SDS011;3451;52.476;13.316;2023-01-09T04:35:27;18.97;;;13.07;;
6825;SDS011;3451;52.476;13.316;2023-01-09T04:37:53;21.33;;;14.80;;
6825;SDS011;3451;52.476;13.316;2023-01-09T04:40:19;21.80;;;14.47;;
6825;SDS011;3451;52.476;13.316;2023-01-09T04:42:46;20.30;;;13.43;;
6825;SDS011;3451;52.476;13.316;2023-01-09T04:45:13;19.90;;;13.67;;
6825;SDS011;3451;52.476;13.316;2023-01-09T04:47:40;21.57;;;14.13;;
6825;SDS011;3451;52.476;13.316;2023-01-09T04:50:07;21.53;;;14.20;;
6825;SDS011;3451;52.476;13.316;2023-01-09T04:52:33;20.73;;;14.50;;
6825;SDS011;3451;52.476;13.316;2023-01-09T04:54:59;20.00;;;13.70;;
6825;SDS011;3451;52.476;13.316;2023-01-09T04:57:26;23.80;;;14.53;;
6825;SDS011;3451;52.476;13.316;2023-01-09T04:59:52;19.23;;;13.77;;
6825;SDS011;3451;52.476;13.316;2023-01-09T05:02:19;20.37;;;14.00;;
6825;SDS011;3451;52.476;13.316;2023-01-09T05:04:45;20.57;;;13.93;;
6825;SDS011;3451;52.476;13.316;2023-01-09T05:07:11;19.40;;;13.17;;
6825;SDS011;3451;52.476;13.316;2023-01-09T05:09:38;20.70;;;14.17;;
6825;SDS011;3451;52.476;13.316;2023-01-09T05:12:04;19.27;;;13.17;;
6825;SDS011;3451;52.476;13.316;2023-01-09T05:14:30;18.47;;;13.30;;
6825;SDS011;3451;52.476;13.316;2023-01-09T05:16:57;22.47;;;14.60;;
6825;SDS011;3451;52.476;13.316;2023-01-09T05:19:23;21.13;;;13.83;;
6825;SDS011;3451;52.476;13.316;2023-01-09T05:21:49;21.13;;;14.03;;
6825;SDS011;3451;52.476;13.316;2023-01-09T05:24:16;21.30;;;13.80;;
6825;SDS011;3451;52.476;13.316;2023-01-09T05:26:42;21.17;;;13.87;;
6825;SDS011;3451;52.476;13.316;2023-01-09T05:29:08;20.20;;;13.03;;
6825;SDS011;3451;52.476;13.316;2023-01-09T05:31:35;20.47;;;13.40;;
6825;SDS011;3451;52.476;13.316;2023-01-09T05:34:01;21.10;;;12.47;;
6825;SDS011;3451;52.476;13.316;2023-01-09T05:36:27;20.97;;;12.67;;
6825;SDS011;3451;52.476;13.316;2023-01-09T05:38:54;22.77;;;13.37;;
6825;SDS011;3451;52.476;13.316;2023-01-09T05:41:23;29.10;;;12.87;;
6825;SDS011;3451;52.476;13.316;2023-01-09T05:43:51;18.47;;;12.80;;
6825;SDS011;3451;52.476;13.316;2023-01-09T05:46:17;18.70;;;12.60;;
6825;SDS011;3451;52.476;13.316;2023-01-09T05:48:43;20.63;;;12.37;;
6825;SDS011;3451;52.476;13.316;2023-01-09T05:51:10;19.90;;;13.13;;
6825;SDS011;3451;52.476;13.316;2023-01-09T05:53:36;19.13;;;12.87;;
6825;SDS011;3451;52.476;13.316;2023-01-09T05:56:03;20.70;;;13.63;;
6825;SDS011;3451;52.476;13.316;2023-01-09T05:58:29;22.40;;;12.97;;
6825;SDS011;3451;52.476;13.316;2023-01-09T06:00:56;18.60;;;12.23;;
6825;SDS011;3451;52.476;13.316;2023-01-09T06:03:23;19.90;;;12.30;;
6825;SDS011;3451;52.476;13.316;2023-01-09T06:05:49;19.10;;;12.77;;
6825;SDS011;3451;52.476;13.316;2023-01-09T06:08:16;19.03;;;12.47;;
6825;SDS011;3451;52.476;13.316;2023-01-09T06:10:44;21.73;;;13.23;;
6825;SDS011;3451;52.476;13.316;2023-01-09T06:13:10;19.40;;;12.43;;
6825;SDS011;3451;52.476;13.316;2023-01-09T06:15:36;20.60;;;13.50;;
6825;SDS011;3451;52.476;13.316;2023-01-09T06:18:02;21.73;;;13.30;;
6825;SDS011;3451;52.476;13.316;2023-01-09T06:20:30;25.63;;;13.27;;
6825;SDS011;3451;52.476;13.316;2023-01-09T06:22:56;24.70;;;13.93;;
6825;SDS011;3451;52.476;13.316;2023-01-09T06:25:22;20.93;;;12.80;;
6825;SDS011;3451;52.476;13.316;2023-01-09T06:27:49;21.00;;;12.67;;
6825;SDS011;3451;52.476;13.316;2023-01-09T06:30:17;22.03;;;14.47;;
6825;SDS011;3451;52.476;13.316;2023-01-09T06:32:44;20.37;;;13.30;;
6825;SDS011;3451;52.476;13.316;2023-01-09T06:35:12;21.47;;;14.30;;
6825;SDS011;3451;52.476;13.316;2023-01-09T06:37:38;21.70;;;13.40;;
6825;SDS011;3451;52.476;13.316;2023-01-09T06:40:04;21.37;;;12.37;;
6825;SDS011;3451;52.476;13.316;2023-01-09T06:42:31;24.70;;;14.23;;
6825;SDS011;3451;52.476;13.316;2023-01-09T06:44:57;19.73;;;13.43;;
6825;SDS011;3451;52.476;13.316;2023-01-09T06:47:23;22.60;;;13.97;;
6825;SDS011;3451;52.476;13.316;2023-01-09T06:49:50;20.20;;;12.90;;
6825;SDS011;3451;52.476;13.316;2023-01-09T06:52:16;22.63;;;13.57;;
6825;SDS011;3451;52.476;13.316;2023-01-09T06:54:42;21.50;;;13.70;;
6825;SDS011;3451;52.476;13.316;2023-01-09T06:57:08;19.90;;;13.40;;
6825;SDS011;3451;52.476;13.316;2023-01-09T06:59:35;25.57;;;14.90;;
6825;SDS011;3451;52.476;13.316;2023-01-09T07:02:02;21.17;;;13.47;;
6825;SDS011;3451;52.476;13.316;2023-01-09T07:04:28;21.87;;;13.33;;
6825;SDS011;3451;52.476;13.316;2023-01-09T07:06:54;22.13;;;13.53;;
6825;SDS011;3451;52.476;13.316;2023-01-09T07:09:21;21.27;;;14.07;;
6825;SDS011;3451;52.476;13.316;2023-01-09T07:11:47;21.47;;;13.57;;
6825;SDS011;3451;52.476;13.316;2023-01-09T07:14:13;22.07;;;14.77;;
6825;SDS011;3451;52.476;13.316;2023-01-09T07:16:39;23.20;;;14.83;;
6825;SDS011;3451;52.476;13.316;2023-01-09T07:19:06;20.47;;;13.63;;
6825;SDS011;3451;52.476;13.316;2023-01-09T07:21:32;24.77;;;15.00;;
6825;SDS011;3451;52.476;13.316;2023-01-09T07:23:58;22.77;;;14.53;;
6825;SDS011;3451;52.476;13.316;2023-01-09T07:26:25;21.77;;;14.33;;
6825;SDS011;3451;52.476;13.316;2023-01-09T07:28:51;23.17;;;15.00;;
6825;SDS011;3451;52.476;13.316;2023-01-09T07:31:17;21.20;;;13.90;;
6825;SDS011;3451;52.476;13.316;2023-01-09T07:33:44;23.20;;;13.93;;
6825;SDS011;3451;52.476;13.316;2023-01-09T07:36:10;23.67;;;14.63;;
6825;SDS011;3451;52.476;13.316;2023-01-09T07:38:36;24.17;;;14.90;;
6825;SDS011;3451;52.476;13.316;2023-01-09T07:41:03;21.77;;;14.30;;
6825;SDS011;3451;52.476;13.316;2023-01-09T07:43:29;23.53;;;14.17;;
6825;SDS011;3451;52.476;13.316;2023-01-09T07:45:55;21.40;;;13.90;;
6825;SDS011;3451;52.476;13.316;2023-01-09T07:48:21;26.03;;;14.60;;
6825;SDS011;3451;52.476;13.316;2023-01-09T07:50:48;21.27;;;13.90;;
6825;SDS011;3451;52.476;13.316;2023-01-09T07:53:14;22.07;;;14.20;;
6825;SDS011;3451;52.476;13.316;2023-01-09T07:55:43;23.03;;;14.27;;
6825;SDS011;3451;52.476;13.316;2023-01-09T07:58:10;23.63;;;13.83;;
6825;SDS011;3451;52.476;13.316;2023-01-09T08:00:36;23.33;;;13.97;;
6825;SDS011;3451;52.476;13.316;2023-01-09T08:03:02;23.90;;;14.53;;
6825;SDS011;3451;52.476;13.316;2023-01-09T08:05:29;24.33;;;13.33;;
6825;SDS011;3451;52.476;13.316;2023-01-09T08:07:55;21.67;;;12.93;;
6825;SDS011;3451;52.476;13.316;2023-01-09T08:10:21;21.87;;;13.20;;
6825;SDS011;3451;52.476;13.316;2023-01-09T08:12:48;18.80;;;12.73;;
6825;SDS011;3451;52.476;13.316;2023-01-09T08:15:14;21.27;;;13.17;;
6825;SDS011;3451;52.476;13.316;2023-01-09T08:17:41;19.53;;;13.33;;
6825;SDS011;3451;52.476;13.316;2023-01-09T08:20:09;18.80;;;13.20;;
6825;SDS011;3451;52.476;13.316;2023-01-09T08:22:42;20.37;;;13.07;;
6825;SDS011;3451;52.476;13.316;2023-01-09T08:25:09;22.90;;;13.13;;
6825;SDS011;3451;52.476;13.316;2023-01-09T08:27:37;21.50;;;12.73;;
6825;SDS011;3451;52.476;13.316;2023-01-09T08:30:04;20.67;;;13.27;;
6825;SDS011;3451;52.476;13.316;2023-01-09T08:32:30;20.97;;;12.70;;
6825;SDS011;3451;52.476;13.316;2023-01-09T08:34:57;21.70;;;13.80;;
6825;SDS011;3451;52.476;13.316;2023-01-09T08:37:23;18.77;;;12.93;;
6825;SDS011;3451;52.476;13.316;2023-01-09T08:39:50;22.27;;;13.00;;
6825;SDS011;3451;52.476;13.316;2023-01-09T08:42:16;19.53;;;12.97;;
6825;SDS011;3451;52.476;13.316;2023-01-09T08:45:01;22.13;;;13.33;;
6825;SDS011;3451;52.476;13.316;2023-01-09T08:47:46;22.10;;;13.27;;
6825;SDS011;3451;52.476;13.316;2023-01-09T08:50:13;21.50;;;13.53;;
6825;SDS011;3451;52.476;13.316;2023-01-09T08:52:40;22.03;;;13.40;;
6825;SDS011;3451;52.476;13.316;2023-01-09T08:55:06;21.33;;;12.90;;
6825;SDS011;3451;52.476;13.316;2023-01-09T08:57:32;21.33;;;12.87;;
6825;SDS011;3451;52.476;13.316;2023-01-09T08:59:59;20.33;;;13.10;;
6825;SDS011;3451;52.476;13.316;2023-01-09T09:02:25;21.87;;;13.67;;
6825;SDS011;3451;52.476;13.316;2023-01-09T09:04:51;19.03;;;12.30;;
6825;SDS011;3451;52.476;13.316;2023-01-09T09:07:19;20.70;;;12.97;;
6825;SDS011;3451;52.476;13.316;2023-01-09T09:09:52;21.57;;;13.37;;
6825;SDS011;3451;52.476;13.316;2023-01-09T09:12:18;20.37;;;13.23;;
6825;SDS011;3451;52.476;13.316;2023-01-09T09:14:45;20.13;;;12.67;;
6825;SDS011;3451;52.476;13.316;2023-01-09T09:17:30;19.07;;;12.73;;
6825;SDS011;3451;52.476;13.316;2023-01-09T09:19:58;20.63;;;13.00;;
6825;SDS011;3451;52.476;13.316;2023-01-09T09:22:24;21.37;;;13.97;;
6825;SDS011;3451;52.476;13.316;2023-01-09T09:24:51;19.93;;;12.83;;
6825;SDS011;3451;52.476;13.316;2023-01-09T09:27:17;22.03;;;13.37;;
6825;SDS011;3451;52.476;13.316;2023-01-09T09:29:44;20.03;;;12.73;;
6825;SDS011;3451;52.476;13.316;2023-01-09T09:32:10;19.53;;;12.33;;
6825;SDS011;3451;52.476;13.316;2023-01-09T09:34:36;17.53;;;12.00;;
6825;SDS011;3451;52.476;13.316;2023-01-09T09:37:03;23.07;;;13.37;;
6825;SDS011;3451;52.476;13.316;2023-01-09T09:39:29;19.70;;;13.03;;
6825;SDS011;3451;52.476;13.316;2023-01-09T09:42:00;18.37;;;12.43;;
6825;SDS011;3451;52.476;13.316;2023-01-09T09:50:16;18.73;;;11.50;;
6825;SDS011;3451;52.476;13.316;2023-01-09T09:53:06;19.80;;;12.33;;
6825;SDS011;3451;52.476;13.316;2023-01-09T09:55:36;19.03;;;11.63;;
6825;SDS011;3451;52.476;13.316;2023-01-09T09:58:05;19.87;;;12.73;;
6825;SDS011;3451;52.476;13.316;2023-01-09T10:00:36;18.90;;;11.70;;
6825;SDS011;3451;52.476;13.316;2023-01-09T10:03:07;17.50;;;10.43;;
6825;SDS011;3451;52.476;13.316;2023-01-09T10:05:38;17.40;;;10.80;;
6825;SDS011;3451;52.476;13.316;2023-01-09T10:08:17;15.40;;;10.03;;
6825;SDS011;3451;52.476;13.316;2023-01-09T10:10:50;16.03;;;9.90;;
6825;SDS011;3451;52.476;13.316;2023-01-09T10:13:18;15.27;;;9.83;;
6825;SDS011;3451;52.476;13.316;2023-01-09T10:21:21;12.93;;;8.87;;
6825;SDS011;3451;52.476;13.316;2023-01-09T10:26:38;13.40;;;8.97;;
6825;SDS011;3451;52.476;13.316;2023-01-09T10:29:14;11.83;;;8.53;;
6825;SDS011;3451;52.476;13.316;2023-01-09T10:31:48;12.60;;;8.53;;
6825;SDS011;3451;52.476;13.316;2023-01-09T10:37:28;14.57;;;8.47;;
6825;SDS011;3451;52.476;13.316;2023-01-09T10:42:25;10.73;;;7.80;;
6825;SDS011;3451;52.476;13.316;2023-01-09T10:47:42;10.80;;;7.63;;
6825;SDS011;3451;52.476;13.316;2023-01-09T10:50:15;10.80;;;7.57;;
6825;SDS011;3451;52.476;13.316;2023-01-09T10:52:43;12.90;;;7.90;;
6825;SDS011;3451;52.476;13.316;2023-01-09T10:55:16;11.20;;;7.63;;
6825;SDS011;3451;52.476;13.316;2023-01-09T10:57:45;11.43;;;7.47;;
6825;SDS011;3451;52.476;13.316;2023-01-09T11:00:13;11.77;;;7.13;;
6825;SDS011;3451;52.476;13.316;2023-01-09T11:02:40;11.73;;;7.00;;
6825;SDS011;3451;52.476;13.316;2023-01-09T11:05:10;8.13;;;5.90;;
6825;SDS011;3451;52.476;13.316;2023-01-09T11:07:38;10.30;;;6.23;;
6825;SDS011;3451;52.476;13.316;2023-01-09T11:10:14;10.60;;;6.23;;
6825;SDS011;3451;52.476;13.316;2023-01-09T11:12:40;9.67;;;6.27;;
6825;SDS011;3451;52.476;13.316;2023-01-09T11:17:45;7.53;;;5.37;;
6825;SDS011;3451;52.476;13.316;2023-01-09T11:20:14;10.17;;;5.50;;
6825;SDS011;3451;52.476;13.316;2023-01-09T11:22:44;8.90;;;5.27;;
6825;SDS011;3451;52.476;13.316;2023-01-09T11:25:12;7.17;;;5.23;;
6825;SDS011;3451;52.476;13.316;2023-01-09T11:27:40;6.90;;;5.30;;
6825;SDS011;3451;52.476;13.316;2023-01-09T11:30:19;6.83;;;4.90;;
6825;SDS011;3451;52.476;13.316;2023-01-09T11:32:47;8.30;;;5.30;;
6825;SDS011;3451;52.476;13.316;2023-01-09T11:35:15;8.40;;;4.50;;
6825;SDS011;3451;52.476;13.316;2023-01-09T11:37:42;6.27;;;4.57;;
6825;SDS011;3451;52.476;13.316;2023-01-09T11:40:16;7.20;;;4.37;;
6825;SDS011;3451;52.476;13.316;2023-01-09T11:42:59;7.90;;;4.40;;
6825;SDS011;3451;52.476;13.316;2023-01-09T11:45:28;7.30;;;4.40;;
6825;SDS011;3451;52.476;13.316;2023-01-09T11:47:55;6.40;;;4.07;;
6825;SDS011;3451;52.476;13.316;2023-01-09T11:50:25;4.87;;;3.93;;
6825;SDS011;3451;52.476;13.316;2023-01-09T11:55:33;5.30;;;3.63;;
6825;SDS011;3451;52.476;13.316;2023-01-09T11:58:14;6.47;;;3.70;;
6825;SDS011;3451;52.476;13.316;2023-01-09T12:00:47;7.10;;;3.97;;
6825;SDS011;3451;52.476;13.316;2023-01-09T12:03:38;5.00;;;3.30;;
6825;SDS011;3451;52.476;13.316;2023-01-09T12:06:19;4.87;;;2.87;;
6825;SDS011;3451;52.476;13.316;2023-01-09T12:08:52;5.77;;;3.40;;
6825;SDS011;3451;52.476;13.316;2023-01-09T12:11:22;5.13;;;3.20;;
6825;SDS011;3451;52.476;13.316;2023-01-09T12:24:52;5.10;;;3.03;;
6825;SDS011;3451;52.476;13.316;2023-01-09T12:27:27;6.17;;;2.70;;
6825;SDS011;3451;52.476;13.316;2023-01-09T12:29:59;4.20;;;2.63;;
6825;SDS011;3451;52.476;13.316;2023-01-09T12:35:06;5.43;;;2.77;;
6825;SDS011;3451;52.476;13.316;2023-01-09T12:40:47;5.73;;;2.93;;
6825;SDS011;3451;52.476;13.316;2023-01-09T12:43:11;5.10;;;2.50;;
6825;SDS011;3451;52.476;13.316;2023-01-09T12:45:54;4.83;;;3.10;;
6825;SDS011;3451;52.476;13.316;2023-01-09T12:48:44;5.30;;;3.00;;
6825;SDS011;3451;52.476;13.316;2023-01-09T12:54:20;4.87;;;2.70;;
6825;SDS011;3451;52.476;13.316;2023-01-09T12:56:48;6.03;;;3.00;;
6825;SDS011;3451;52.476;13.316;2023-01-09T12:59:26;4.83;;;2.80;;
6825;SDS011;3451;52.476;13.316;2023-01-09T13:02:43;9.53;;;2.97;;
6825;SDS011;3451;52.476;13.316;2023-01-09T13:04:49;10.47;;;3.20;;
6825;SDS011;3451;52.476;13.316;2023-01-09T13:07:20;5.57;;;2.70;;
6825;SDS011;3451;52.476;13.316;2023-01-09T13:09:52;7.37;;;2.77;;
6825;SDS011;3451;52.476;13.316;2023-01-09T13:12:21;6.97;;;2.80;;
6825;SDS011;3451;52.476;13.316;2023-01-09T13:14:50;4.20;;;2.50;;
6825;SDS011;3451;52.476;13.316;2023-01-09T13:17:19;6.43;;;2.40;;
6825;SDS011;3451;52.476;13.316;2023-01-09T13:19:46;5.43;;;2.50;;
6825;SDS011;3451;52.476;13.316;2023-01-09T13:22:13;5.77;;;2.23;;
6825;SDS011;3451;52.476;13.316;2023-01-09T13:27:14;5.57;;;2.20;;
6825;SDS011;3451;52.476;13.316;2023-01-09T13:29:43;5.00;;;2.13;;
6825;SDS011;3451;52.476;13.316;2023-01-09T13:32:14;7.83;;;3.20;;
6825;SDS011;3451;52.476;13.316;2023-01-09T13:34:45;5.80;;;2.43;;
6825;SDS011;3451;52.476;13.316;2023-01-09T13:37:20;7.60;;;2.40;;
6825;SDS011;3451;52.476;13.316;2023-01-09T13:39:53;3.23;;;2.00;;
6825;SDS011;3451;52.476;13.316;2023-01-09T13:42:20;4.43;;;2.13;;
6825;SDS011;3451;52.476;13.316;2023-01-09T13:45:17;4.80;;;2.30;;
6825;SDS011;3451;52.476;13.316;2023-01-09T13:47:45;4.67;;;2.30;;
6825;SDS011;3451;52.476;13.316;2023-01-09T13:50:22;6.63;;;2.07;;
6825;SDS011;3451;52.476;13.316;2023-01-09T13:52:49;2.90;;;1.90;;
6825;SDS011;3451;52.476;13.316;2023-01-09T13:57:42;5.30;;;2.33;;
6825;SDS011;3451;52.476;13.316;2023-01-09T14:05:15;4.93;;;1.73;;
6825;SDS011;3451;52.476;13.316;2023-01-09T14:07:42;4.93;;;1.97;;
6825;SDS011;3451;52.476;13.316;2023-01-09T14:12:45;7.47;;;1.97;;
6825;SDS011;3451;52.476;13.316;2023-01-09T14:15:23;4.57;;;2.03;;
6825;SDS011;3451;52.476;13.316;2023-01-09T14:17:58;6.30;;;2.00;;
6825;SDS011;3451;52.476;13.316;2023-01-09T14:20:27;3.77;;;2.20;;
6825;SDS011;3451;52.476;13.316;2023-01-09T14:22:55;5.93;;;2.07;;
6825;SDS011;3451;52.476;13.316;2023-01-09T14:25:42;3.37;;;1.87;;
6825;SDS011;3451;52.476;13.316;2023-01-09T14:28:19;4.27;;;1.83;;
6825;SDS011;3451;52.476;13.316;2023-01-09T14:43:38;5.43;;;1.63;;
6825;SDS011;3451;52.476;13.316;2023-01-09T14:46:13;3.33;;;1.80;;
6825;SDS011;3451;52.476;13.316;2023-01-09T14:48:58;5.07;;;2.00;;
6825;SDS011;3451;52.476;13.316;2023-01-09T14:51:25;3.93;;;2.20;;
6825;SDS011;3451;52.476;13.316;2023-01-09T14:53:53;4.80;;;2.00;;
6825;SDS011;3451;52.476;13.316;2023-01-09T14:56:27;4.17;;;1.77;;
6825;SDS011;3451;52.476;13.316;2023-01-09T14:59:03;4.10;;;1.70;;
6825;SDS011;3451;52.476;13.316;2023-01-09T15:01:30;2.10;;;1.60;;
6825;SDS011;3451;52.476;13.316;2023-01-09T15:03:58;3.33;;;1.50;;
6825;SDS011;3451;52.476;13.316;2023-01-09T15:06:33;4.50;;;1.43;;
6825;SDS011;3451;52.476;13.316;2023-01-09T15:09:05;4.30;;;1.90;;
6825;SDS011;3451;52.476;13.316;2023-01-09T15:11:32;4.60;;;2.10;;
6825;SDS011;3451;52.476;13.316;2023-01-09T15:13:59;4.67;;;1.87;;
6825;SDS011;3451;52.476;13.316;2023-01-09T15:16:30;4.43;;;2.47;;
6825;SDS011;3451;52.476;13.316;2023-01-09T15:18:58;4.57;;;2.10;;
6825;SDS011;3451;52.476;13.316;2023-01-09T15:21:26;6.47;;;2.30;;
6825;SDS011;3451;52.476;13.316;2023-01-09T15:24:11;3.37;;;1.97;;
6825;SDS011;3451;52.476;13.316;2023-01-09T15:26:38;6.93;;;2.37;;
6825;SDS011;3451;52.476;13.316;2023-01-09T15:29:12;4.90;;;2.20;;
6825;SDS011;3451;52.476;13.316;2023-01-09T15:31:40;7.10;;;2.67;;
6825;SDS011;3451;52.476;13.316;2023-01-09T15:34:08;3.97;;;2.00;;
6825;SDS011;3451;52.476;13.316;2023-01-09T15:36:39;4.73;;;2.33;;
6825;SDS011;3451;52.476;13.316;2023-01-09T15:39:05;5.70;;;2.30;;
6825;SDS011;3451;52.476;13.316;2023-01-09T15:41:31;7.27;;;2.33;;
6825;SDS011;3451;52.476;13.316;2023-01-09T15:44:25;4.30;;;2.00;;
6825;SDS011;3451;52.476;13.316;2023-01-09T15:46:56;4.90;;;2.27;;
6825;SDS011;3451;52.476;13.316;2023-01-09T15:49:23;5.30;;;1.90;;
6825;SDS011;3451;52.476;13.316;2023-01-09T15:51:49;5.17;;;2.30;;
6825;SDS011;3451;52.476;13.316;2023-01-09T15:54:25;6.20;;;2.20;;
6825;SDS011;3451;52.476;13.316;2023-01-09T15:56:52;4.27;;;2.10;;
6825;SDS011;3451;52.476;13.316;2023-01-09T15:59:24;4.70;;;2.47;;
6825;SDS011;3451;52.476;13.316;2023-01-09T16:01:58;6.73;;;2.40;;
6825;SDS011;3451;52.476;13.316;2023-01-09T16:04:45;4.87;;;2.13;;
6825;SDS011;3451;52.476;13.316;2023-01-09T16:07:12;5.13;;;2.57;;
6825;SDS011;3451;52.476;13.316;2023-01-09T16:09:42;5.50;;;2.57;;
6825;SDS011;3451;52.476;13.316;2023-01-09T16:12:19;3.60;;;2.30;;
6825;SDS011;3451;52.476;13.316;2023-01-09T16:14:50;4.80;;;2.20;;
6825;SDS011;3451;52.476;13.316;2023-01-09T16:17:17;3.83;;;2.40;;
6825;SDS011;3451;52.476;13.316;2023-01-09T16:19:47;4.17;;;2.87;;
6825;SDS011;3451;52.476;13.316;2023-01-09T16:22:14;4.97;;;2.73;;